sensor_id;sensor_type;location;lat;lon;timestamp;pressure;altitude;pressure_sealevel;temperature;humidity
18795;BME280;29610;49.022;12.114;2024-02-21T00:00:33;98676.38;;;8.10;100.00
18795;BME280;29610;49.022;12.114;2024-02-21T00:03:02;98664.72;;;8.09;100.00
18795;BME280;29610;49.022;12.114;2024-02-21T00:05:31;98670.16;;;8.09;100.00
18795;BME280;29610;49.022;12.114;2024-02-21T00:08:02;98669.06;;;8.10;100.00
18795;BME280;29610;49.022;12.114;2024-02-21T00:10:31;98663.97;;;8.04;100.00
18795;BME280;29610;49.022;12.114;2024-02-21T00:13:00;98660.69;;;8.07;100.00
18795;BME280;29610;49.022;12.114;2024-02-21T00:15:28;98649.09;;;8.01;100.00
18795;BME280;29610;49.022;12.114;2024-02-21T00:17:56;98651.75;;;8.06;100.00
18795;BME280;29610;49.022;12.114;2024-02-21T00:20:25;98642.31;;;8.04;100.00
18795;BME280;29610;49.022;12.114;2024-02-21T00:22:53;98649.09;;;8.01;100.00
18795;BME280;29610;49.022;12.114;2024-02-21T00:25:23;98644.50;;;8.02;100.00
18795;BME280;29610;49.022;12.114;2024-02-21T00:27:51;98647.72;;;8.04;100.00
18795;BME280;29610;49.022;12.114;2024-02-21T00:30:20;98643.97;;;8.00;100.00
18795;BME280;29610;49.022;12.114;2024-02-21T00:32:48;98646.91;;;8.03;100.00
18795;BME280;29610;49.022;12.114;2024-02-21T00:35:17;98639.06;;;8.02;100.00
18795;BME280;29610;49.022;12.114;2024-02-21T00:37:45;98638.03;;;7.98;100.00
18795;BME280;29610;49.022;12.114;2024-02-21T00:40:13;98635.84;;;8.00;100.00
18795;BME280;29610;49.022;12.114;2024-02-21T00:42:50;98626.13;;;7.94;100.00
18795;BME280;29610;49.022;12.114;2024-02-21T00:45:18;98632.63;;;7.98;100.00
18795;BME280;29610;49.022;12.114;2024-02-21T00:47:46;98628.84;;;7.94;100.00
18795;BME280;29610;49.022;12.114;2024-02-21T00:50:15;98630.72;;;7.93;100.00
18795;BME280;29610;49.022;12.114;2024-02-21T00:52:43;98629.91;;;7.98;100.00
18795;BME280;29610;49.022;12.114;2024-02-21T00:55:11;98630.75;;;7.88;100.00
18795;BME280;29610;49.022;12.114;2024-02-21T00:57:39;98630.50;;;7.90;100.00
18795;BME280;29610;49.022;12.114;2024-02-21T01:00:11;98631.88;;;7.87;100.00
18795;BME280;29610;49.022;12.114;2024-02-21T01:02:39;98625.16;;;7.80;100.00
18795;BME280;29610;49.022;12.114;2024-02-21T01:05:07;98630.00;;;7.83;100.00
18795;BME280;29610;49.022;12.114;2024-02-21T01:07:36;98622.44;;;7.80;100.00
18795;BME280;29610;49.022;12.114;2024-02-21T01:10:06;98625.44;;;7.78;100.00
18795;BME280;29610;49.022;12.114;2024-02-21T01:12:34;98619.50;;;7.76;100.00
18795;BME280;29610;49.022;12.114;2024-02-21T01:15:03;98619.50;;;7.76;100.00
18795;BME280;29610;49.022;12.114;2024-02-21T01:17:33;98621.97;;;7.68;100.00
18795;BME280;29610;49.022;12.114;2024-02-21T01:20:02;98618.44;;;7.72;100.00
18795;BME280;29610;49.022;12.114;2024-02-21T01:22:32;98616.03;;;7.71;100.00
18795;BME280;29610;49.022;12.114;2024-02-21T01:25:01;98616.81;;;7.71;100.00
18795;BME280;29610;49.022;12.114;2024-02-21T01:27:29;98617.31;;;7.78;100.00
18795;BME280;29610;49.022;12.114;2024-02-21T01:29:57;98611.06;;;7.83;100.00
18795;BME280;29610;49.022;12.114;2024-02-21T01:32:25;98611.66;;;7.75;100.00
18795;BME280;29610;49.022;12.114;2024-02-21T01:34:55;98606.22;;;7.80;100.00
18795;BME280;29610;49.022;12.114;2024-02-21T01:37:23;98600.03;;;7.74;100.00
18795;BME280;29610;49.022;12.114;2024-02-21T01:39:52;98598.41;;;7.73;100.00
18795;BME280;29610;49.022;12.114;2024-02-21T01:42:20;98594.13;;;7.67;100.00
18795;BME280;29610;49.022;12.114;2024-02-21T01:44:49;98591.91;;;7.74;100.00
18795;BME280;29610;49.022;12.114;2024-02-21T01:47:18;98587.13;;;7.61;100.00
18795;BME280;29610;49.022;12.114;2024-02-21T01:49:47;98588.50;;;7.59;100.00
18795;BME280;29610;49.022;12.114;2024-02-21T01:52:17;98583.59;;;7.66;100.00
18795;BME280;29610;49.022;12.114;2024-02-21T01:54:47;98577.34;;;7.70;100.00
18795;BME280;29610;49.022;12.114;2024-02-21T01:57:16;98574.66;;;7.65;100.00
18795;BME280;29610;49.022;12.114;2024-02-21T01:59:44;98575.19;;;7.67;100.00
18795;BME280;29610;49.022;12.114;2024-02-21T02:02:13;98575.47;;;7.66;100.00
18795;BME280;29610;49.022;12.114;2024-02-21T02:04:43;98569.22;;;7.70;100.00
18795;BME280;29610;49.022;12.114;2024-02-21T02:07:12;98564.09;;;7.69;100.00
18795;BME280;29610;49.022;12.114;2024-02-21T02:09:42;98562.66;;;7.76;100.00
18795;BME280;29610;49.022;12.114;2024-02-21T02:12:10;98559.25;;;7.66;100.00
18795;BME280;29610;49.022;12.114;2024-02-21T02:14:39;98558.44;;;7.65;100.00
18795;BME280;29610;49.022;12.114;2024-02-21T02:17:07;98549.97;;;7.77;100.00
18795;BME280;29610;49.022;12.114;2024-02-21T02:19:36;98548.81;;;7.83;100.00
18795;BME280;29610;49.022;12.114;2024-02-21T02:22:14;98549.38;;;7.80;100.00
18795;BME280;29610;49.022;12.114;2024-02-21T02:24:49;98531.31;;;7.75;100.00
18795;BME280;29610;49.022;12.114;2024-02-21T02:27:17;98542.31;;;7.84;100.00
18795;BME280;29610;49.022;12.114;2024-02-21T02:29:46;98533.88;;;7.90;100.00
18795;BME280;29610;49.022;12.114;2024-02-21T02:32:14;98527.66;;;7.90;100.00
18795;BME280;29610;49.022;12.114;2024-02-21T02:34:42;98522.16;;;8.00;100.00
18795;BME280;29610;49.022;12.114;2024-02-21T02:37:11;98521.91;;;7.96;100.00
18795;BME280;29610;49.022;12.114;2024-02-21T02:39:39;98519.16;;;8.01;100.00
18795;BME280;29610;49.022;12.114;2024-02-21T02:42:08;98517.06;;;7.93;100.00
18795;BME280;29610;49.022;12.114;2024-02-21T02:44:37;98509.47;;;7.95;100.00
18795;BME280;29610;49.022;12.114;2024-02-21T02:47:05;98507.25;;;8.02;100.00
18795;BME280;29610;49.022;12.114;2024-02-21T02:49:33;98509.75;;;7.94;100.00
18795;BME280;29610;49.022;12.114;2024-02-21T02:52:01;98503.97;;;8.05;100.00
18795;BME280;29610;49.022;12.114;2024-02-21T02:54:30;98502.69;;;7.98;100.00
18795;BME280;29610;49.022;12.114;2024-02-21T02:56:58;98502.13;;;8.01;100.00
18795;BME280;29610;49.022;12.114;2024-02-21T02:59:27;98495.97;;;7.90;100.00
18795;BME280;29610;49.022;12.114;2024-02-21T03:01:55;98495.44;;;7.88;100.00
18795;BME280;29610;49.022;12.114;2024-02-21T03:04:24;98502.41;;;7.99;100.00
18795;BME280;29610;49.022;12.114;2024-02-21T03:06:53;98502.34;;;8.04;100.00
18795;BME280;29610;49.022;12.114;2024-02-21T03:09:21;98494.22;;;8.04;100.00
18795;BME280;29610;49.022;12.114;2024-02-21T03:11:50;98503.47;;;7.98;100.00
18795;BME280;29610;49.022;12.114;2024-02-21T03:14:19;98497.69;;;8.10;100.00
18795;BME280;29610;49.022;12.114;2024-02-21T03:16:51;98499.78;;;8.18;100.00
18795;BME280;29610;49.022;12.114;2024-02-21T03:19:20;98493.09;;;8.10;100.00
18795;BME280;29610;49.022;12.114;2024-02-21T03:21:48;98503.41;;;8.08;100.00
18795;BME280;29610;49.022;12.114;2024-02-21T03:24:18;98483.06;;;8.11;100.00
18795;BME280;29610;49.022;12.114;2024-02-21T03:26:47;98497.38;;;8.16;100.00
18795;BME280;29610;49.022;12.114;2024-02-21T03:29:16;98495.53;;;8.12;100.00
18795;BME280;29610;49.022;12.114;2024-02-21T03:31:44;98490.56;;;8.19;100.00
18795;BME280;29610;49.022;12.114;2024-02-21T03:34:14;98490.69;;;8.09;100.00
18795;BME280;29610;49.022;12.114;2024-02-21T03:36:42;98488.75;;;8.09;100.00
18795;BME280;29610;49.022;12.114;2024-02-21T03:39:11;98492.28;;;8.10;100.00
18795;BME280;29610;49.022;12.114;2024-02-21T03:41:39;98484.41;;;8.13;100.00
18795;BME280;29610;49.022;12.114;2024-02-21T03:44:07;98475.06;;;8.01;100.00
18795;BME280;29610;49.022;12.114;2024-02-21T03:46:35;98472.63;;;7.99;100.00
18795;BME280;29610;49.022;12.114;2024-02-21T03:49:03;98471.63;;;7.90;100.00
18795;BME280;29610;49.022;12.114;2024-02-21T03:51:33;98471.88;;;7.94;100.00
18795;BME280;29610;49.022;12.114;2024-02-21T03:54:02;98475.75;;;7.83;100.00
18795;BME280;29610;49.022;12.114;2024-02-21T03:56:30;98477.31;;;7.89;100.00
18795;BME280;29610;49.022;12.114;2024-02-21T03:58:58;98480.06;;;7.84;100.00
18795;BME280;29610;49.022;12.114;2024-02-21T04:01:27;98482.03;;;7.78;100.00
18795;BME280;29610;49.022;12.114;2024-02-21T04:03:56;98481.22;;;7.78;100.00
18795;BME280;29610;49.022;12.114;2024-02-21T04:06:24;98476.28;;;7.85;100.00
18795;BME280;29610;49.022;12.114;2024-02-21T04:08:53;98476.34;;;7.80;100.00
18795;BME280;29610;49.022;12.114;2024-02-21T04:11:22;98480.63;;;7.81;100.00
18795;BME280;29610;49.022;12.114;2024-02-21T04:13:50;98474.69;;;7.79;100.00
18795;BME280;29610;49.022;12.114;2024-02-21T04:16:18;98475.69;;;7.93;100.00
18795;BME280;29610;49.022;12.114;2024-02-21T04:18:47;98475.72;;;7.88;100.00
18795;BME280;29610;49.022;12.114;2024-02-21T04:21:15;98476.50;;;7.88;100.00
18795;BME280;29610;49.022;12.114;2024-02-21T04:23:44;98468.34;;;7.93;100.00
18795;BME280;29610;49.022;12.114;2024-02-21T04:26:14;98469.69;;;7.96;100.00
18795;BME280;29610;49.022;12.114;2024-02-21T04:28:44;98463.16;;;7.97;100.00
18795;BME280;29610;49.022;12.114;2024-02-21T04:31:13;98464.56;;;7.94;100.00
18795;BME280;29610;49.022;12.114;2024-02-21T04:33:42;98464.06;;;7.87;100.00
18795;BME280;29610;49.022;12.114;2024-02-21T04:36:10;98449.88;;;8.00;100.00
18795;BME280;29610;49.022;12.114;2024-02-21T04:38:39;98447.25;;;7.90;100.00
18795;BME280;29610;49.022;12.114;2024-02-21T04:41:08;98450.44;;;7.97;100.00
18795;BME280;29610;49.022;12.114;2024-02-21T04:43:37;98441.81;;;7.95;100.00
18795;BME280;29610;49.022;12.114;2024-02-21T04:46:06;98434.22;;;7.97;100.00
18795;BME280;29610;49.022;12.114;2024-02-21T04:48:34;98434.22;;;7.97;100.00
18795;BME280;29610;49.022;12.114;2024-02-21T04:51:03;98427.41;;;8.00;100.00
18795;BME280;29610;49.022;12.114;2024-02-21T04:53:31;98432.47;;;8.06;100.00
18795;BME280;29610;49.022;12.114;2024-02-21T04:56:00;98430.69;;;7.97;100.00
18795;BME280;29610;49.022;12.114;2024-02-21T04:58:28;98424.06;;;8.08;100.00
18795;BME280;29610;49.022;12.114;2024-02-21T05:00:58;98423.53;;;8.06;100.00
18795;BME280;29610;49.022;12.114;2024-02-21T05:03:26;98424.06;;;8.08;100.00
18795;BME280;29610;49.022;12.114;2024-02-21T05:05:54;98420.06;;;8.05;100.00
18795;BME280;29610;49.022;12.114;2024-02-21T05:08:22;98421.06;;;8.09;100.00
18795;BME280;29610;49.022;12.114;2024-02-21T05:10:51;98424.66;;;8.05;100.00
18795;BME280;29610;49.022;12.114;2024-02-21T05:13:19;98422.53;;;8.02;100.00
18795;BME280;29610;49.022;12.114;2024-02-21T05:15:47;98415.78;;;7.99;100.00
18795;BME280;29610;49.022;12.114;2024-02-21T05:18:17;98413.31;;;8.03;100.00
18795;BME280;29610;49.022;12.114;2024-02-21T05:20:46;98407.59;;;8.04;100.00
18795;BME280;29610;49.022;12.114;2024-02-21T05:23:15;98403.03;;;8.00;100.00
18795;BME280;29610;49.022;12.114;2024-02-21T05:25:43;98403.63;;;7.97;100.00
18795;BME280;29610;49.022;12.114;2024-02-21T05:28:11;98400.56;;;8.03;100.00
18795;BME280;29610;49.022;12.114;2024-02-21T05:30:40;98393.03;;;8.00;100.00
18795;BME280;29610;49.022;12.114;2024-02-21T05:33:10;98388.66;;;8.04;100.00
18795;BME280;29610;49.022;12.114;2024-02-21T05:35:39;98384.63;;;8.02;100.00
18795;BME280;29610;49.022;12.114;2024-02-21T05:38:07;98385.22;;;7.99;100.00
18795;BME280;29610;49.022;12.114;2024-02-21T05:40:38;98392.06;;;7.91;100.00
18795;BME280;29610;49.022;12.114;2024-02-21T05:43:08;98382.25;;;7.95;100.00
18795;BME280;29610;49.022;12.114;2024-02-21T05:45:37;98376.91;;;7.90;100.00
18795;BME280;29610;49.022;12.114;2024-02-21T05:48:06;98371.38;;;7.77;100.00
18795;BME280;29610;49.022;12.114;2024-02-21T05:50:33;98379.50;;;7.77;100.00
18795;BME280;29610;49.022;12.114;2024-02-21T05:53:03;98373.28;;;7.76;100.00
18795;BME280;29610;49.022;12.114;2024-02-21T05:55:31;98372.06;;;7.87;100.00
18795;BME280;29610;49.022;12.114;2024-02-21T05:58:00;98367.13;;;7.94;100.00
18795;BME280;29610;49.022;12.114;2024-02-21T06:00:29;98366.13;;;7.85;100.00
18795;BME280;29610;49.022;12.114;2024-02-21T06:02:58;98366.84;;;7.96;100.00
18795;BME280;29610;49.022;12.114;2024-02-21T06:05:26;98367.19;;;7.89;100.00
18795;BME280;29610;49.022;12.114;2024-02-21T06:07:54;98367.19;;;7.89;100.00
18795;BME280;29610;49.022;12.114;2024-02-21T06:10:24;98359.13;;;7.84;100.00
18795;BME280;29610;49.022;12.114;2024-02-21T06:12:52;98362.28;;;7.91;100.00
18795;BME280;29610;49.022;12.114;2024-02-21T06:15:20;98354.00;;;7.83;100.00
18795;BME280;29610;49.022;12.114;2024-02-21T06:17:48;98349.41;;;7.83;100.00
18795;BME280;29610;49.022;12.114;2024-02-21T06:20:16;98355.94;;;7.77;100.00
18795;BME280;29610;49.022;12.114;2024-02-21T06:22:45;98353.84;;;7.69;100.00
18795;BME280;29610;49.022;12.114;2024-02-21T06:25:13;98359.53;;;7.68;100.00
18795;BME280;29610;49.022;12.114;2024-02-21T06:27:43;98361.63;;;7.76;100.00
18795;BME280;29610;49.022;12.114;2024-02-21T06:30:13;98358.63;;;7.77;100.00
18795;BME280;29610;49.022;12.114;2024-02-21T06:32:41;98356.47;;;7.79;100.00
18795;BME280;29610;49.022;12.114;2024-02-21T06:35:09;98359.00;;;7.71;100.00
18795;BME280;29610;49.022;12.114;2024-02-21T06:37:38;98359.22;;;7.74;100.00
18795;BME280;29610;49.022;12.114;2024-02-21T06:40:07;98370.09;;;7.69;100.00
18795;BME280;29610;49.022;12.114;2024-02-21T06:42:36;98373.78;;;7.78;100.00
18795;BME280;29610;49.022;12.114;2024-02-21T06:45:06;98375.28;;;7.89;100.00
18795;BME280;29610;49.022;12.114;2024-02-21T06:47:34;98384.44;;;7.93;100.00
18795;BME280;29610;49.022;12.114;2024-02-21T06:50:04;98378.00;;;7.89;100.00
18795;BME280;29610;49.022;12.114;2024-02-21T06:52:32;98382.78;;;8.21;100.00
18795;BME280;29610;49.022;12.114;2024-02-21T06:55:00;98396.81;;;8.28;100.00
18795;BME280;29610;49.022;12.114;2024-02-21T06:57:29;98395.22;;;8.22;100.00
18795;BME280;29610;49.022;12.114;2024-02-21T06:59:57;98384.47;;;8.40;100.00
18795;BME280;29610;49.022;12.114;2024-02-21T07:02:27;98382.69;;;8.31;100.00
18795;BME280;29610;49.022;12.114;2024-02-21T07:04:55;98373.16;;;8.33;100.00
18795;BME280;29610;49.022;12.114;2024-02-21T07:07:23;98375.66;;;8.30;100.00
18795;BME280;29610;49.022;12.114;2024-02-21T07:09:51;98368.44;;;8.20;100.00
18795;BME280;29610;49.022;12.114;2024-02-21T07:12:20;98364.19;;;8.14;100.00
18795;BME280;29610;49.022;12.114;2024-02-21T07:14:49;98366.81;;;8.19;100.00
18795;BME280;29610;49.022;12.114;2024-02-21T07:17:17;98363.53;;;8.22;100.00
18795;BME280;29610;49.022;12.114;2024-02-21T07:19:46;98376.84;;;8.19;100.00
18795;BME280;29610;49.022;12.114;2024-02-21T07:22:14;98385.09;;;8.32;100.00
18795;BME280;29610;49.022;12.114;2024-02-21T07:24:43;98383.66;;;8.40;100.00
18795;BME280;29610;49.022;12.114;2024-02-21T07:27:13;98389.88;;;8.40;100.00
18795;BME280;29610;49.022;12.114;2024-02-21T07:29:41;98400.72;;;8.40;100.00
18795;BME280;29610;49.022;12.114;2024-02-21T07:32:14;98396.63;;;8.43;100.00
18795;BME280;29610;49.022;12.114;2024-02-21T07:34:43;98400.44;;;8.42;100.00
18795;BME280;29610;49.022;12.114;2024-02-21T07:37:12;98399.66;;;8.60;100.00
18795;BME280;29610;49.022;12.114;2024-02-21T07:39:41;98392.34;;;8.79;100.00
18795;BME280;29610;49.022;12.114;2024-02-21T07:42:09;98387.34;;;8.86;100.00
18795;BME280;29610;49.022;12.114;2024-02-21T07:44:37;98382.81;;;9.00;100.00
18795;BME280;29610;49.022;12.114;2024-02-21T07:47:06;98382.34;;;9.12;100.00
18795;BME280;29610;49.022;12.114;2024-02-21T07:49:41;98372.81;;;9.33;100.00
18795;BME280;29610;49.022;12.114;2024-02-21T07:52:11;98362.94;;;9.23;100.00
18795;BME280;29610;49.022;12.114;2024-02-21T07:54:40;98361.66;;;9.34;100.00
18795;BME280;29610;49.022;12.114;2024-02-21T07:57:08;98352.53;;;9.44;100.00
18795;BME280;29610;49.022;12.114;2024-02-21T07:59:36;98352.69;;;9.66;100.00
18795;BME280;29610;49.022;12.114;2024-02-21T08:02:05;98343.84;;;9.74;100.00
18795;BME280;29610;49.022;12.114;2024-02-21T08:04:34;98339.19;;;9.61;100.00
18795;BME280;29610;49.022;12.114;2024-02-21T08:07:03;98325.06;;;9.77;100.00
18795;BME280;29610;49.022;12.114;2024-02-21T08:09:32;98321.53;;;9.63;100.00
18795;BME280;29610;49.022;12.114;2024-02-21T08:12:01;98314.38;;;9.67;100.00
18795;BME280;29610;49.022;12.114;2024-02-21T08:14:30;98312.88;;;9.88;100.00
18795;BME280;29610;49.022;12.114;2024-02-21T08:16:58;98304.25;;;10.00;100.00
18795;BME280;29610;49.022;12.114;2024-02-21T08:19:26;98302.75;;;10.07;100.00
18795;BME280;29610;49.022;12.114;2024-02-21T08:21:55;98302.63;;;9.99;100.00
18795;BME280;29610;49.022;12.114;2024-02-21T08:24:23;98308.75;;;9.91;100.00
18795;BME280;29610;49.022;12.114;2024-02-21T08:26:52;98310.00;;;10.12;100.00
18795;BME280;29610;49.022;12.114;2024-02-21T08:29:21;98312.50;;;10.08;100.00
18795;BME280;29610;49.022;12.114;2024-02-21T08:31:49;98312.78;;;10.07;100.00
18795;BME280;29610;49.022;12.114;2024-02-21T08:34:17;98310.19;;;10.02;100.00
18795;BME280;29610;49.022;12.114;2024-02-21T08:36:46;98310.75;;;10.40;100.00
18795;BME280;29610;49.022;12.114;2024-02-21T08:39:14;98306.94;;;10.41;100.00
18795;BME280;29610;49.022;12.114;2024-02-21T08:41:44;98290.81;;;10.58;100.00
18795;BME280;29610;49.022;12.114;2024-02-21T08:44:27;98299.53;;;10.68;100.00
18795;BME280;29610;49.022;12.114;2024-02-21T08:46:55;98294.59;;;10.70;100.00
18795;BME280;29610;49.022;12.114;2024-02-21T08:49:24;98309.66;;;10.98;100.00
18795;BME280;29610;49.022;12.114;2024-02-21T08:52:00;98329.28;;;11.31;100.00
18795;BME280;29610;49.022;12.114;2024-02-21T08:54:29;98323.56;;;11.63;100.00
18795;BME280;29610;49.022;12.114;2024-02-21T08:56:58;98314.34;;;11.81;100.00
18795;BME280;29610;49.022;12.114;2024-02-21T08:59:27;98299.28;;;11.75;100.00
18795;BME280;29610;49.022;12.114;2024-02-21T09:01:56;98293.31;;;11.42;100.00
18795;BME280;29610;49.022;12.114;2024-02-21T09:04:24;98289.13;;;11.36;100.00
18795;BME280;29610;49.022;12.114;2024-02-21T09:06:53;98304.91;;;11.26;100.00
18795;BME280;29610;49.022;12.114;2024-02-21T09:09:21;98285.78;;;11.39;100.00
18795;BME280;29610;49.022;12.114;2024-02-21T09:11:51;98273.00;;;11.18;100.00
18795;BME280;29610;49.022;12.114;2024-02-21T09:14:20;98273.22;;;11.30;100.00
18795;BME280;29610;49.022;12.114;2024-02-21T09:16:50;98261.59;;;11.38;100.00
18795;BME280;29610;49.022;12.114;2024-02-21T09:19:18;98259.88;;;11.42;100.00
18795;BME280;29610;49.022;12.114;2024-02-21T09:21:47;98257.59;;;11.66;100.00
18795;BME280;29610;49.022;12.114;2024-02-21T09:24:16;98261.03;;;11.80;100.00
18795;BME280;29610;49.022;12.114;2024-02-21T09:26:44;98262.16;;;11.88;100.00
18795;BME280;29610;49.022;12.114;2024-02-21T09:29:12;98262.50;;;11.95;100.00
18795;BME280;29610;49.022;12.114;2024-02-21T09:31:42;98254.22;;;12.17;100.00
18795;BME280;29610;49.022;12.114;2024-02-21T09:34:12;98256.31;;;12.20;100.00
18795;BME280;29610;49.022;12.114;2024-02-21T09:36:41;98256.94;;;12.08;100.00
18795;BME280;29610;49.022;12.114;2024-02-21T09:39:09;98254.84;;;11.97;100.00
18795;BME280;29610;49.022;12.114;2024-02-21T09:41:49;98254.19;;;12.00;100.00
18795;BME280;29610;49.022;12.114;2024-02-21T09:44:19;98252.13;;;12.05;100.00
18795;BME280;29610;49.022;12.114;2024-02-21T09:46:56;98237.72;;;12.22;100.00
18795;BME280;29610;49.022;12.114;2024-02-21T09:49:30;98228.91;;;12.42;100.00
18795;BME280;29610;49.022;12.114;2024-02-21T09:52:01;98227.31;;;12.58;100.00
18795;BME280;29610;49.022;12.114;2024-02-21T09:54:33;98229.41;;;12.69;100.00
18795;BME280;29610;49.022;12.114;2024-02-21T09:57:02;98223.13;;;12.94;100.00
18795;BME280;29610;49.022;12.114;2024-02-21T09:59:33;98214.78;;;12.99;100.00
18795;BME280;29610;49.022;12.114;2024-02-21T10:02:01;98216.66;;;13.24;100.00
18795;BME280;29610;49.022;12.114;2024-02-21T10:04:31;98213.94;;;13.24;100.00
18795;BME280;29610;49.022;12.114;2024-02-21T10:07:00;98214.22;;;13.40;100.00
18795;BME280;29610;49.022;12.114;2024-02-21T10:09:29;98207.66;;;13.33;100.00
18795;BME280;29610;49.022;12.114;2024-02-21T10:12:08;98204.56;;;13.43;100.00
18795;BME280;29610;49.022;12.114;2024-02-21T10:14:38;98207.41;;;13.55;100.00
18795;BME280;29610;49.022;12.114;2024-02-21T10:17:06;98208.03;;;13.23;100.00
18795;BME280;29610;49.022;12.114;2024-02-21T10:19:39;98204.31;;;13.27;100.00
18795;BME280;29610;49.022;12.114;2024-02-21T10:22:09;98204.75;;;13.38;100.00
18795;BME280;29610;49.022;12.114;2024-02-21T10:24:38;98192.19;;;13.45;100.00
18795;BME280;29610;49.022;12.114;2024-02-21T10:27:09;98189.09;;;13.55;100.00
18795;BME280;29610;49.022;12.114;2024-02-21T10:29:40;98193.81;;;13.38;100.00
18795;BME280;29610;49.022;12.114;2024-02-21T10:32:11;98191.22;;;13.50;100.00
18795;BME280;29610;49.022;12.114;2024-02-21T10:34:42;98189.94;;;13.76;100.00
18795;BME280;29610;49.022;12.114;2024-02-21T10:37:12;98192.44;;;13.90;100.00
18795;BME280;29610;49.022;12.114;2024-02-21T10:39:41;98187.44;;;13.92;100.00
18795;BME280;29610;49.022;12.114;2024-02-21T10:42:12;98186.03;;;13.86;100.00
18795;BME280;29610;49.022;12.114;2024-02-21T10:44:41;98184.06;;;14.15;100.00
18795;BME280;29610;49.022;12.114;2024-02-21T10:47:11;98164.56;;;14.25;100.00
18795;BME280;29610;49.022;12.114;2024-02-21T10:49:44;98168.28;;;14.21;100.00
18795;BME280;29610;49.022;12.114;2024-02-21T10:52:25;98160.09;;;14.41;100.00
18795;BME280;29610;49.022;12.114;2024-02-21T10:55:03;98150.03;;;14.33;100.00
18795;BME280;29610;49.022;12.114;2024-02-21T10:57:32;98143.25;;;14.72;100.00
18795;BME280;29610;49.022;12.114;2024-02-21T11:00:01;98134.44;;;14.99;100.00
18795;BME280;29610;49.022;12.114;2024-02-21T11:02:30;98128.97;;;15.11;100.00
18795;BME280;29610;49.022;12.114;2024-02-21T11:05:02;98131.63;;;15.20;100.00
18795;BME280;29610;49.022;12.114;2024-02-21T11:07:32;98124.69;;;15.46;100.00
18795;BME280;29610;49.022;12.114;2024-02-21T11:10:04;98116.81;;;15.45;100.00
18795;BME280;29610;49.022;12.114;2024-02-21T11:12:34;98107.94;;;15.60;99.60
18795;BME280;29610;49.022;12.114;2024-02-21T11:15:06;98104.03;;;15.61;94.12
18795;BME280;29610;49.022;12.114;2024-02-21T11:17:34;98098.41;;;15.81;95.61
18795;BME280;29610;49.022;12.114;2024-02-21T11:20:18;98092.47;;;16.31;95.01
18795;BME280;29610;49.022;12.114;2024-02-21T11:22:46;98087.63;;;16.00;90.70
18795;BME280;29610;49.022;12.114;2024-02-21T11:25:22;98073.63;;;15.90;91.77
18795;BME280;29610;49.022;12.114;2024-02-21T11:27:59;98072.34;;;15.99;91.01
18795;BME280;29610;49.022;12.114;2024-02-21T11:30:27;98058.84;;;16.34;91.43
18795;BME280;29610;49.022;12.114;2024-02-21T11:33:01;98051.34;;;16.59;90.00
18795;BME280;29610;49.022;12.114;2024-02-21T11:35:36;98048.78;;;16.66;87.09
18795;BME280;29610;49.022;12.114;2024-02-21T11:38:10;98041.69;;;16.80;80.19
18795;BME280;29610;49.022;12.114;2024-02-21T11:40:45;98042.78;;;16.91;81.03
18795;BME280;29610;49.022;12.114;2024-02-21T11:43:15;98037.00;;;16.96;78.25
18795;BME280;29610;49.022;12.114;2024-02-21T11:45:44;98026.75;;;17.09;75.58
18795;BME280;29610;49.022;12.114;2024-02-21T11:48:12;98025.97;;;17.08;74.31
18795;BME280;29610;49.022;12.114;2024-02-21T11:50:42;98022.69;;;16.72;73.73
18795;BME280;29610;49.022;12.114;2024-02-21T11:53:10;98024.19;;;16.85;71.32
18795;BME280;29610;49.022;12.114;2024-02-21T11:55:38;98023.66;;;17.10;69.08
18795;BME280;29610;49.022;12.114;2024-02-21T11:58:06;98015.31;;;17.22;67.68
18795;BME280;29610;49.022;12.114;2024-02-21T12:00:35;98010.97;;;17.21;68.63
18795;BME280;29610;49.022;12.114;2024-02-21T12:03:04;98017.94;;;17.34;63.47
18795;BME280;29610;49.022;12.114;2024-02-21T12:05:33;97997.66;;;17.55;60.77
18795;BME280;29610;49.022;12.114;2024-02-21T12:08:04;97991.50;;;17.11;60.54
18795;BME280;29610;49.022;12.114;2024-02-21T12:10:33;97987.84;;;17.22;60.76
18795;BME280;29610;49.022;12.114;2024-02-21T12:13:06;97984.91;;;17.46;58.53
18795;BME280;29610;49.022;12.114;2024-02-21T12:15:35;97983.66;;;17.79;56.62
18795;BME280;29610;49.022;12.114;2024-02-21T12:18:04;97986.16;;;17.87;59.82
18795;BME280;29610;49.022;12.114;2024-02-21T12:20:33;97977.88;;;18.03;59.06
18795;BME280;29610;49.022;12.114;2024-02-21T12:23:08;97980.66;;;17.87;59.15
18795;BME280;29610;49.022;12.114;2024-02-21T12:25:38;97971.91;;;17.63;58.08
18795;BME280;29610;49.022;12.114;2024-02-21T12:28:07;97970.59;;;17.57;59.32
18795;BME280;29610;49.022;12.114;2024-02-21T12:30:36;97971.00;;;17.24;59.29
18795;BME280;29610;49.022;12.114;2024-02-21T12:33:06;97971.97;;;17.31;57.91
18795;BME280;29610;49.022;12.114;2024-02-21T12:35:34;97954.34;;;17.17;57.69
18795;BME280;29610;49.022;12.114;2024-02-21T12:38:04;97954.13;;;17.06;56.85
18795;BME280;29610;49.022;12.114;2024-02-21T12:40:33;97951.38;;;17.41;58.20
18795;BME280;29610;49.022;12.114;2024-02-21T12:43:02;97944.84;;;17.30;57.91
18795;BME280;29610;49.022;12.114;2024-02-21T12:45:31;97937.75;;;17.44;58.23
18795;BME280;29610;49.022;12.114;2024-02-21T12:48:00;97933.38;;;17.43;56.67
18795;BME280;29610;49.022;12.114;2024-02-21T12:50:29;97930.34;;;17.14;57.48
18795;BME280;29610;49.022;12.114;2024-02-21T12:52:58;97916.59;;;17.29;59.57
18795;BME280;29610;49.022;12.114;2024-02-21T12:55:28;97921.59;;;17.43;58.25
18795;BME280;29610;49.022;12.114;2024-02-21T12:57:56;97911.94;;;17.87;58.35